Flight Track Log - Related Links

Times and Time Zones

All times are in EDT time to prevent confusion due to time zone crossing. See the DAL674 flight status page for this flight to view local times or setup timezone preferences in your user account.

Time Position Orientation Groundspeed Altitude Reporting Facility
EDT Latitude Longitude Course Direction KTS MPH feet Rate Location/Type
Mon 02:41:25 PM 18.3333 -64.9333 255° West 160 184 1,500  Level San Juan Center
Mon 02:42:25 PM 18.2833 -64.9333 180° South 210 242 3,200 2,529 Climbing San Juan Center
Mon 02:43:26 PM 18.2833 -65.0167 270° West 290 334 6,600 2,975 Climbing San Juan Center
Mon 02:44:26 PM 18.3333 -65.0667 316° Northwest 290 334 9,200 2,400 Climbing San Juan Center
Mon 02:45:26 PM 18.4000 -65.1500 310° West 320 368 11,400 1,785 Climbing San Juan Center
Mon 02:46:00 PM 18.3123 -65.1008 255° West  Level FlightAware Approximate
Mon 02:46:27 PM 18.4667 -65.2167 317° Northwest 380 437 12,800  Level San Juan Center
Mon 02:47:27 PM 18.5667 -65.2500 342° North 400 460 15,000 2,150 Climbing San Juan Center
Mon 02:48:27 PM 18.6833 -65.2833 345° North 430 495 17,100 2,083 Climbing San Juan Center
Mon 02:49:28 PM 18.8000 -65.3167 345° North 430 495 19,200 1,785 Climbing San Juan Center
Mon 02:50:28 PM 18.9167 -65.3667 338° Northwest 450 518 20,700 1,650 Climbing San Juan Center
Mon 02:51:28 PM 18.9833 -65.4833 301° West 450 518 22,500 1,650 Climbing San Juan Center
Mon 02:52:28 PM 19.0667 -65.5833 311° West 460 529 24,000 1,488 Climbing San Juan Center
Mon 02:53:29 PM 19.1333 -65.6833 305° West 460 529 25,500 1,488 Climbing San Juan Center
Mon 02:54:29 PM 19.2167 -65.8000 307° West 460 529 27,000 1,438 Climbing San Juan Center
Mon 02:55:30 PM 19.3000 -65.9167 307° West 470 541 28,400 1,388 Climbing San Juan Center
Mon 02:56:30 PM 19.3833 -66.0333 307° West 480 552 29,800 1,400 Climbing San Juan Center
Mon 02:57:30 PM 19.4667 -66.1333 311° West 480 552 31,200 1,350 Climbing San Juan Center
Mon 02:58:30 PM 19.5333 -66.2500 301° West 480 552 32,500 1,388 Climbing San Juan Center
Mon 02:59:31 PM 19.6167 -66.3667 307° West 470 541 34,000 1,438 Climbing San Juan Center
Mon 03:00:31 PM 19.6833 -66.4667 305° West 460 529 35,400 1,000 Climbing San Juan Center
Mon 03:01:31 PM 19.7667 -66.5833 307° West 450 518 36,000 298 Climbing San Juan Center
Mon 03:02:32 PM 19.8333 -66.6833 305° West 440 506 36,000  Level San Juan Center
Mon 03:03:32 PM 19.9000 -66.7833 305° West 450 518 36,000 500 Level San Juan Center
Mon 03:04:32 PM 19.9833 -66.9000 307° West 450 518 37,000 850 Climbing San Juan Center
Mon 03:05:32 PM 20.0500 -67.0000 305° West 450 518 37,700 496 Climbing San Juan Center
Mon 03:06:33 PM 20.1167 -67.1000 305° West 450 518 38,000 149 Climbing San Juan Center
Mon 03:07:33 PM 20.2000 -67.2167 307° West 450 518 38,000  Level San Juan Center
Mon 03:08:33 PM 20.2667 -67.3167 305° West 440 506 38,000  Level San Juan Center
Mon 03:09:34 PM 20.3333 -67.4167 305° West 430 495 38,000  Level San Juan Center
Mon 03:10:34 PM 20.4167 -67.5333 307° West 440 506 38,000  Level San Juan Center
Mon 03:11:34 PM 20.4833 -67.6333 305° West 440 506 38,000  Level San Juan Center
Mon 03:12:07 PM 20.5375 -67.7019 310° West 442 509 38,000  Level Miami Center
Mon 03:13:09 PM 20.6128 -67.8100 307° West 446 513 38,000  Level Miami Center
Mon 03:14:11 PM 20.6964 -67.9417 304° West 447 514 38,000  Level Miami Center
Mon 03:15:13 PM 20.7694 -68.0519 305° West 448 516 38,000  Level Miami Center
Mon 03:16:15 PM 20.8436 -68.1606 306° West 449 517 38,000  Level Miami Center
Mon 03:17:16 PM 20.9194 -68.2658 308° West 449 517 38,000  Level Miami Center
Mon 03:18:18 PM 20.9992 -68.3714 309° West 449 517 38,000  Level Miami Center
Mon 03:19:20 PM 21.0758 -68.4778 308° West 449 517 38,000  Level Miami Center
Mon 03:20:22 PM 21.1664 -68.6047 307° West 449 517 38,000  Level Miami Center
Mon 03:21:24 PM 21.2442 -68.7106 308° West 450 518 38,000  Level Miami Center
Mon 03:22:26 PM 21.3189 -68.8161 307° West 449 517 38,000  Level Miami Center
Mon 03:23:28 PM 21.3950 -68.9219 308° West 450 518 38,000  Level Miami Center
Mon 03:24:30 PM 21.4669 -69.0269 306° West 447 514 38,000  Level Miami Center
Mon 03:25:32 PM 21.5428 -69.1322 308° West 445 512 38,000  Level Miami Center
Mon 03:26:34 PM 21.6183 -69.2375 308° West 445 512 38,000  Level Miami Center
Mon 03:27:36 PM 21.7078 -69.3647 307° West 445 512 38,000  Level Miami Center
Mon 03:28:38 PM 21.7822 -69.4697 307° West 445 512 38,000  Level Miami Center
Mon 03:29:40 PM 21.8564 -69.5761 307° West 445 512 38,000  Level Miami Center
Mon 03:30:42 PM 21.9306 -69.6814 307° West 445 512 38,000 -48 Level Miami Center
Mon 03:31:44 PM 22.0064 -69.7889 307° West 445 512 37,900  Descending Miami Center
Mon 03:32:46 PM 22.0864 -69.9014 308° West 446 513 38,000 48 Climbing Miami Center
Mon 03:33:48 PM 22.1689 -70.0211 307° West 446 513 38,000  Level Miami Center
Mon 03:34:50 PM 22.2444 -70.1278 307° West 446 513 38,000  Level Miami Center
Mon 03:35:52 PM 22.3200 -70.2339 308° West 446 513 38,000  Level Miami Center
Mon 03:36:54 PM 22.3944 -70.3414 307° West 446 513 38,000  Level Miami Center
Mon 03:37:56 PM 22.4697 -70.4489 307° West 446 513 38,000  Level Miami Center
Mon 03:38:58 PM 22.5567 -70.5767 306° West 446 513 38,000  Level Miami Center
Mon 03:40:00 PM 22.6317 -70.6825 308° West 446 513 38,000  Level Miami Center
Mon 03:41:02 PM 22.7056 -70.7897 307° West 446 513 38,000  Level Miami Center
Mon 03:42:04 PM 22.7794 -70.8967 307° West 446 513 38,000  Level Miami Center
Mon 03:43:06 PM 22.8539 -71.0036 307° West 446 513 38,000  Level Miami Center
Mon 03:44:08 PM 22.9281 -71.1111 307° West 446 513 38,000  Level Miami Center
Mon 03:45:10 PM 23.0167 -71.2408 307° West 446 513 38,000  Level Miami Center
Mon 03:46:12 PM 23.0914 -71.3511 306° West 447 514 38,000  Level Miami Center
Mon 03:47:14 PM 23.1653 -71.4592 307° West 447 514 38,000  Level Miami Center
Mon 03:48:16 PM 23.2400 -71.5678 307° West 447 514 38,000  Level Miami Center
Mon 03:49:18 PM 23.3136 -71.6781 306° West 448 516 38,000  Level Miami Center
Mon 03:50:20 PM 23.3883 -71.7872 307° West 448 516 38,000  Level Miami Center
Mon 03:51:22 PM 23.4772 -71.9192 306° West 448 516 38,000  Level Miami Center
Mon 03:52:23 PM 23.5514 -72.0292 306° West 449 517 38,000  Level Miami Center
Mon 03:53:25 PM 23.6256 -72.1389 306° West 449 517 38,000  Level Miami Center
Mon 03:54:27 PM 23.6997 -72.2489 306° West 449 517 38,000  Level Miami Center
Mon 03:55:29 PM 23.7742 -72.3594 306° West 450 518 38,000  Level Miami Center
Mon 03:56:31 PM 23.8475 -72.4700 306° West 450 518 38,000  Level Miami Center
Mon 03:57:33 PM 23.9303 -72.5917 307° West 450 518 38,000  Level Miami Center
Mon 03:58:35 PM 24.0036 -72.7017 306° West 450 518 38,000  Level Miami Center
Mon 03:59:37 PM 24.0767 -72.8122 306° West 449 517 38,000  Level Miami Center
Mon 04:00:39 PM 24.1506 -72.9219 306° West 449 517 38,000  Level Miami Center
Mon 04:01:41 PM 24.2375 -73.0542 306° West 448 516 38,000  Level Miami Center
Mon 04:02:43 PM 24.3103 -73.1628 306° West 446 513 38,000  Level Miami Center
Mon 04:03:45 PM 24.3825 -73.2739 306° West 446 513 38,000  Level Miami Center
Mon 04:04:47 PM 24.4539 -73.3831 306° West 446 513 38,000  Level Miami Center
Mon 04:05:49 PM 24.5267 -73.4928 306° West 445 512 38,000  Level Miami Center
Mon 04:06:51 PM 24.5972 -73.6008 306° West 441 507 38,000  Level Miami Center
Mon 04:07:53 PM 24.6689 -73.7108 306° West 439 505 38,000  Level Miami Center
Mon 04:08:54 PM 24.7539 -73.8414 306° West 439 505 38,000  Level Miami Center
Mon 04:09:56 PM 24.8281 -73.9519 306° West 442 509 38,000  Level Miami Center
Mon 04:10:58 PM 24.8997 -74.0636 305° West 444 511 38,000  Level Miami Center
Mon 04:12:00 PM 24.9722 -74.1761 305° West 446 513 38,000  Level Miami Center
Mon 04:13:02 PM 25.0450 -74.2883 306° West 451 519 38,000  Level Miami Center
Mon 04:14:04 PM 25.1172 -74.4022 305° West 451 519 38,000  Level Miami Center
Mon 04:15:06 PM 25.1844 -74.5214 302° West 455 524 38,000  Level Miami Center
Mon 04:16:08 PM 25.2658 -74.6639 302° West 457 526 38,000  Level Miami Center
Mon 04:17:10 PM 25.3358 -74.7806 304° West 458 527 38,000  Level Miami Center
Mon 04:18:11 PM 25.4108 -74.8950 306° West 457 526 38,000  Level Miami Center
Mon 04:19:13 PM 25.4825 -75.0103 305° West 457 526 38,000  Level Miami Center
Mon 04:20:15 PM 25.5547 -75.1244 305° West 456 525 38,000  Level Miami Center
Mon 04:21:17 PM 25.6267 -75.2394 305° West 455 524 38,000  Level Miami Center
Mon 04:22:19 PM 25.7136 -75.3781 305° West 455 524 38,000  Level Miami Center
Mon 04:23:21 PM 25.7861 -75.4956 304° West 452 520 38,000  Level Miami Center
Mon 04:24:23 PM 25.8564 -75.6094 304° West 450 518 38,000  Level Miami Center
Mon 04:25:25 PM 25.9278 -75.7225 305° West 449 517 38,000  Level Miami Center
Mon 04:26:26 PM 25.9964 -75.8350 304° West 446 513 38,000  Level Miami Center
Mon 04:27:28 PM 26.0722 -75.9606 304° West 445 512 38,000  Level Miami Center
Mon 04:28:30 PM 26.1378 -76.0733 303° West 437 503 38,000  Level Miami Center
Mon 04:29:32 PM 26.2053 -76.1872 303° West 437 503 38,000  Level Miami Center
Mon 04:30:34 PM 26.2792 -76.3131 303° West 441 507 38,000  Level Miami Center
Mon 04:31:36 PM 26.3467 -76.4269 303° West 440 506 38,000  Level Miami Center
Mon 04:32:38 PM 26.4131 -76.5408 303° West 439 505 38,000  Level Miami Center
Mon 04:33:40 PM 26.4869 -76.6661 303° West 440 506 38,000  Level Miami Center
Mon 04:34:42 PM 26.5600 -76.7767 306° West 440 506 38,000  Level Miami Center
Mon 04:35:44 PM 26.6281 -76.8908 304° West 439 505 38,000  Level Miami Center
Mon 04:36:46 PM 26.6989 -77.0161 302° West 437 503 38,000  Level Miami Center
Mon 04:37:48 PM 26.7631 -77.1317 302° West 436 502 38,000  Level Miami Center
Mon 04:38:50 PM 26.8294 -77.2483 303° West 438 504 38,000  Level Miami Center
Mon 04:39:52 PM 26.8936 -77.3619 302° West 435 501 38,000  Level Miami Center
Mon 04:40:54 PM 26.9636 -77.4906 301° West 435 501 38,000  Level Miami Center
Mon 04:41:56 PM 27.0294 -77.6056 303° West 439 505 38,000  Level Miami Center
Mon 04:42:58 PM 27.0969 -77.7172 304° West 436 502 38,000  Level Miami Center
Mon 04:44:00 PM 27.1639 -77.8314 303° West 434 499 38,000  Level Miami Center
Mon 04:45:01 PM 27.2378 -77.9553 304° West 434 499 38,000  Level Miami Center
Mon 04:46:04 PM 27.3047 -78.0692 304° West 434 499 38,000  Level Miami Center
Mon 04:47:05 PM 27.3714 -78.1767 305° West 430 495 38,000  Level Miami Center
Mon 04:48:07 PM 27.4381 -78.2933 303° West 436 502 38,000  Level Miami Center
Mon 04:49:09 PM 27.5031 -78.4064 303° West 435 501 38,000  Level Miami Center
Mon 04:50:11 PM 27.5697 -78.5208 303° West 436 502 38,000 339 Level Miami Center
Mon 04:51:13 PM 27.6486 -78.6569 303° West 433 498 38,700 484 Climbing Miami Center
Mon 04:52:15 PM 27.7189 -78.7647 306° West 429 494 39,000 145 Climbing Miami Center
Mon 04:53:17 PM 27.7883 -78.8781 305° West 422 486 39,000  Level Miami Center
Mon 04:54:18 PM 27.8569 -78.9894 305° West 421 484 39,000  Level Miami Center
Mon 04:55:20 PM 27.9189 -79.0897 305° West 424 488 39,000  Level Miami Center
Mon 04:56:22 PM 28.0011 -79.1858 314° West 427 491 39,000  Level Miami Center
Mon 04:57:24 PM 28.1108 -79.2903 320° Northwest 430 495 39,000  Level Miami Center
Mon 04:58:26 PM 28.2017 -79.3789 319° Northwest 430 495 39,000  Level Miami Center
Mon 04:59:28 PM 28.2936 -79.4661 320° Northwest 431 496 39,000  Level Miami Center
Mon 05:00:30 PM 28.3842 -79.5550 319° Northwest 431 496 39,000  Level Miami Center
Mon 05:01:31 PM 28.4758 -79.6444 319° Northwest 431 496 39,000  Level Miami Center
Mon 05:02:33 PM 28.5664 -79.7339 319° Northwest 432 497 39,000  Level Miami Center
Mon 05:03:35 PM 28.6756 -79.8397 320° Northwest 432 497 39,000  Level Miami Center
Mon 05:04:37 PM 28.7678 -79.9300 319° Northwest 434 499 39,000  Level Miami Center
Mon 05:05:39 PM 28.8583 -80.0189 319° Northwest 434 499 39,000  Level Miami Center
Mon 05:06:41 PM 28.9489 -80.1083 319° Northwest 433 498 39,000  Level Miami Center
Mon 05:07:43 PM 29.0403 -80.1989 319° Northwest 434 499 39,000  Level Miami Center
Mon 05:08:45 PM 29.1308 -80.2878 319° Northwest 432 497 39,000  Level Miami Center
Mon 05:09:46 PM 29.2383 -80.3967 319° Northwest 432 497 39,000  Level Miami Center
Mon 05:10:48 PM 29.3283 -80.4869 319° Northwest 432 497 39,000  Level Miami Center
Mon 05:11:50 PM 29.4189 -80.5767 319° Northwest 432 497 39,000  Level Miami Center
Mon 05:12:52 PM 29.5083 -80.6669 319° Northwest 433 498 39,000  Level Miami Center
Mon 05:13:54 PM 29.5969 -80.7592 318° Northwest 432 497 39,000  Level Miami Center
Mon 05:14:56 PM 29.6889 -80.8489 320° Northwest 432 497 39,000  Level Miami Center
Mon 05:15:57 PM 29.7967 -80.9586 319° Northwest 429 494 39,000  Level Jacksonville Center
Mon 05:16:57 PM 29.8858 -81.0528 318° Northwest 429 494 39,000  Level Jacksonville Center
Mon 05:17:57 PM 29.9789 -81.1444 320° Northwest 424 488 39,000  Level Jacksonville Center
Mon 05:18:57 PM 30.0700 -81.2364 319° Northwest 424 488 39,000  Level Jacksonville Center
Mon 05:19:57 PM 30.1608 -81.3311 318° Northwest 424 488 39,000  Level Jacksonville Center
Mon 05:20:57 PM 30.2539 -81.4233 319° Northwest 429 494 39,000  Level Jacksonville Center
Mon 05:21:57 PM 30.3467 -81.5133 320° Northwest 429 494 39,000  Level Jacksonville Center
Mon 05:22:57 PM 30.4561 -81.5792 333° Northwest 434 499 39,000  Level Jacksonville Center
Mon 05:23:57 PM 30.5653 -81.6406 334° Northwest 439 505 39,000  Level Jacksonville Center
Mon 05:24:57 PM 30.6744 -81.7067 332° Northwest 439 505 39,000  Level Jacksonville Center
Mon 05:25:57 PM 30.7856 -81.7731 333° Northwest 439 505 39,000  Level Jacksonville Center
Mon 05:26:57 PM 30.8947 -81.8369 333° Northwest 439 505 39,000  Level Jacksonville Center
Mon 05:27:57 PM 31.0039 -81.9036 332° Northwest 439 505 39,000  Level Jacksonville Center
Mon 05:28:57 PM 31.1150 -81.9656 334° Northwest 439 505 39,000  Level Jacksonville Center
Mon 05:29:57 PM 31.2156 -82.0278 332° Northwest 445 512 39,000  Level Jacksonville Center
Mon 05:30:57 PM 31.3247 -82.0925 333° Northwest 445 512 39,000  Level Jacksonville Center
Mon 05:31:57 PM 31.4336 -82.1597 332° Northwest 445 512 39,000 -874 Level Jacksonville Center
Mon 05:33:28 PM 31.6169 -82.2586 335° Northwest 446 513 36,800 -1,470 Descending Atlanta Center
Mon 05:34:28 PM 31.7283 -82.3272 332° Northwest 446 513 35,300 -900 Descending Atlanta Center
Mon 05:35:28 PM 31.8442 -82.3958 333° Northwest 451 519 35,000 -150 Descending Atlanta Center
Mon 05:36:28 PM 31.9600 -82.4647 333° Northwest 457 526 35,000  Level Atlanta Center
Mon 05:37:28 PM 32.0733 -82.5364 332° Northwest 457 526 35,000 -450 Level Atlanta Center
Mon 05:38:28 PM 32.1706 -82.6328 320° Northwest 457 526 34,100 -1,050 Descending Atlanta Center
Mon 05:39:28 PM 32.2658 -82.7394 317° Northwest 462 532 32,900 -1,100 Descending Atlanta Center
Mon 05:40:28 PM 32.3669 -82.8486 318° Northwest 474 545 31,900 -1,000 Descending Atlanta Center
Mon 05:41:28 PM 32.4619 -82.9556 316° Northwest 479 551 30,900 -1,700 Descending Atlanta Center
Mon 05:42:28 PM 32.5589 -83.0653 316° Northwest 479 551 28,500 -2,550 Descending Atlanta Center
Mon 05:43:28 PM 32.6578 -83.1753 317° Northwest 484 557 25,800 -2,850 Descending Atlanta Center
Mon 05:44:28 PM 32.7544 -83.2831 317° Northwest 484 557 22,800 -2,900 Descending Atlanta Center
Mon 05:45:28 PM 32.8492 -83.3911 316° Northwest 473 544 20,000 -2,750 Descending Atlanta Center
Mon 05:46:28 PM 32.9372 -83.4919 316° Northwest 463 533 17,300 -2,600 Descending Atlanta Center
Mon 05:47:28 PM 33.0233 -83.5953 315° West 442 509 14,800 -2,250 Descending Atlanta Center
Mon 05:48:28 PM 33.1028 -83.6817 318° Northwest 415 478 12,800 -1,250 Descending Atlanta Center
Mon 05:49:28 PM 33.1761 -83.7658 316° Northwest 384 442 12,300 -650 Descending Atlanta Center
Mon 05:50:28 PM 33.2389 -83.8400 315° West 347 399 11,500 -1,150 Descending Atlanta Center
Mon 05:51:28 PM 33.2892 -83.9194 307° West 319 367 10,000 -1,400 Descending Atlanta Center
Mon 05:52:28 PM 33.3392 -83.9942 309° West 299 344 8,700 -1,300 Descending Atlanta Center
Mon 05:53:28 PM 33.4061 -84.0464 327° Northwest 278 320 7,400 -1,600 Descending Atlanta Center
Mon 05:54:28 PM 33.4769 -84.0786 339° North 278 320 5,500 -1,200 Descending Atlanta Center
Mon 05:55:28 PM 33.5353 -84.1286 324° Northwest 278 320 5,000 -1,042 Descending Atlanta Center
Mon 05:56:52 PM 33.6000 -84.2167 311° West 248 285 3,000 -870 Descending Atlanta TRACON
Mon 05:57:46 PM 33.6167 -84.2833 287° West 206 237 3,000 -400 Level Atlanta TRACON
Mon 05:58:52 PM 33.6333 -84.3500 287° West 163 188 2,200 -714 Descending Atlanta TRACON
Mon 05:59:52 PM 33.6333 -84.4000 270° West 143 165 1,500 -700 Descending Atlanta TRACON

Login

Don't have an account? Register now (free) for customized features, flight alerts, and more!